N7QNM-10 Weather Reports


Display with metric or nautical units.
time (UTC)temp
F
wind
direction
speed
MPH
gust
MPH
rain 1hr
in
rain 24hr
in
rain mn
in
humidity
%
barometer
mb
20171020195027 58 0 6.0 10.0 0.00 0.00 0.00 40 1006.3
20171020194522 58 0 6.0 11.0 0.00 0.00 0.00 40 1006.4
20171020194017 57 0 3.0 13.0 0.00 0.00 0.00 40 1006.3
20171020193512 56 0 6.0 15.0 0.00 0.00 0.00 41 1006.3
20171020193006 56 0 16.0 16.0 0.00 0.00 0.00 41 1006.5
20171020192501 57 270 6.0 13.0 0.00 0.00 0.00 39 1006.4
20171020191956 57 270 8.0 16.0 0.00 0.00 0.00 39 1006.3
20171020191451 58 270 12.0 16.0 0.00 0.00 0.00 37 1006.4
20171020190946 58 315 10.0 13.0 0.00 0.00 0.00 36 1006.2
20171020190442 57 315 8.0 12.0 0.00 0.00 0.00 36 1006.2
20171020185935 57 315 7.0 8.0 0.00 0.00 0.00 35 1006.1
20171020184922 58 270 10.0 13.0 0.00 0.00 0.00 34 1006.0
20171020184417 59 315 8.0 8.0 0.00 0.00 0.00 34 1005.8
20171020183912 59 315 8.0 10.0 0.00 0.00 0.00 33 1005.7
20171020183407 59 315 4.0 9.0 0.00 0.00 0.00 36 1005.6
20171020182901 59 315 3.0 9.0 0.00 0.00 0.00 35 1005.6
20171020182356 59 315 8.0 13.0 0.00 0.00 0.00 33 1005.6
20171020181851 58 315 7.0 7.0 0.00 0.00 0.00 37 1005.5
20171020181346 58 315 4.0 10.0 0.00 0.00 0.00 37 1005.4
20171020180841 58 315 3.0 9.0 0.00 0.00 0.00 38 1005.5
20171020180335 58 315 8.0 10.0 0.00 0.00 0.00 37 1005.7
20171020175830 58 315 6.0 7.0 0.00 0.00 0.00 40 1005.6
20171020175325 57 315 9.0 13.0 0.00 0.00 0.00 41 1005.5
20171020174820 57 315 4.0 7.0 0.00 0.00 0.00 41 1005.4
20171020174315 57 315 4.0 6.0 0.00 0.00 0.00 41 1005.4
20171020173810 56 315 7.0 7.0 0.00 0.00 0.00 44 1005.3
20171020173304 56 270 4.0 5.0 0.00 0.00 0.00 44 1005.3
20171020172759 56 270 3.0 4.0 0.00 0.00 0.00 48 1005.4
20171020172254 56 270 4.0 5.0 0.00 0.00 0.00 48 1005.2
20171020171749 56 270 0.0 1.0 0.00 0.00 0.00 52 1005.4
20171020171244 55 270 1.0 1.0 0.00 0.00 0.00 55 1005.4
20171020170738 55 270 0.0 2.0 0.00 0.00 0.00 57 1004.9
20171020170233 54 270 1.0 1.0 0.00 0.00 0.00 57 1005.0
20171020165728 54 270 2.0 2.0 0.00 0.00 0.00 57 1004.8
20171020165223 53 270 1.0 2.0 0.00 0.00 0.00 59 1004.9
20171020164718 53 270 1.0 2.0 0.00 0.00 0.00 60 1004.8
20171020164212 53 270 1.0 1.0 0.00 0.00 0.00 63 1004.9
20171020163707 52 270 0.0 0.0 0.00 0.00 0.00 64 1004.9
20171020163202 51 270 0.0 0.0 0.00 0.00 0.00 66 1005.1
20171020162657 50 270 0.0 0.0 0.00 0.00 0.00 68 1004.8
20171020162152 49 270 0.0 0.0 0.00 0.00 0.00 68 1004.8
20171020161647 49 270 0.0 1.0 0.00 0.00 0.00 68 1004.7
20171020161141 49 270 0.0 0.0 0.00 0.00 0.00 69 1004.5
20171020160636 48 270 0.0 0.0 0.00 0.00 0.00 69 1004.5
20171020160131 48 270 0.0 0.0 0.00 0.00 0.00 70 1004.4
20171020155626 47 270 0.0 0.0 0.00 0.00 0.00 71 1004.4
20171020155121 46 270 0.0 0.0 0.00 0.00 0.00 71 1004.2
20171020154615 45 270 0.0 1.0 0.00 0.00 0.00 71 1004.2
20171020154111 45 270 0.0 1.0 0.00 0.00 0.00 71 1003.9
20171020153605 44 270 1.0 1.0 0.00 0.00 0.00 70 1003.7
20171020153100 43 270 0.0 2.0 0.00 0.00 0.00 69 1003.5
20171020152556 43 270 0.0 0.0 0.00 0.00 0.00 68 1003.6
20171020152050 43 270 1.0 2.0 0.00 0.00 0.00 67 1003.3
20171020151834 43 270 1.0 1.0 0.00 0.00 0.00 67 1003.2
20171020151544 43 270 1.0 1.0 0.00 0.00 0.00 67 1003.2
20171020151039 43 270 0.0 1.0 0.00 0.00 0.00 66 1003.1
20171020150534 43 270 0.0 0.0 0.00 0.00 0.00 66 1002.8
20171020150029 43 270 0.0 1.0 0.00 0.00 0.00 66 1002.9
20171020145524 44 270 1.0 3.0 0.00 0.00 0.00 64 1002.9
20171020145019 44 270 1.0 2.0 0.00 0.00 0.00 64 1002.7
20171020144513 44 270 3.0 6.0 0.00 0.00 0.00 64 1002.7
20171020144008 44 270 0.0 1.0 0.00 0.00 0.00 64 1002.5
20171020143503 44 270 0.0 5.0 0.00 0.00 0.00 64 1002.5
20171020142958 45 270 2.0 2.0 0.00 0.00 0.00 62 1002.5
20171020142453 45 270 4.0 7.0 0.00 0.00 0.00 63 1002.3
20171020141947 45 270 0.0 5.0 0.00 0.00 0.00 63 1002.3
20171020141443 45 270 6.0 7.0 0.00 0.00 0.00 62 1002.3
20171020140937 45 270 7.0 8.0 0.00 0.00 0.00 64 1002.1
20171020140432 45 270 4.0 6.0 0.00 0.00 0.00 62 1001.9
20171020135927 46 270 7.0 8.0 0.00 0.00 0.00 62 1001.6
20171020135421 46 270 6.0 8.0 0.00 0.00 0.00 62 1001.6
20171020134916 46 270 6.0 7.0 0.00 0.00 0.00 61 1001.5
20171020134411 46 270 6.0 8.0 0.00 0.00 0.00 60 1001.6
20171020133906 46 270 3.0 3.0 0.00 0.00 0.00 60 1001.4
20171020133401 47 270 0.0 4.0 0.00 0.00 0.00 59 1001.4
20171020132856 47 270 4.0 4.0 0.00 0.00 0.00 58 1001.4
20171020132350 48 270 0.0 2.0 0.00 0.00 0.00 58 1001.4
20171020131845 49 270 1.0 2.0 0.00 0.00 0.00 56 1001.4
20171020131340 49 270 3.0 4.0 0.00 0.00 0.00 57 1001.3
20171020130835 50 270 3.0 4.0 0.00 0.00 0.00 57 1001.3
20171020130330 50 270 3.0 4.0 0.00 0.00 0.00 57 1001.1
20171020125824 50 270 2.0 7.0 0.00 0.00 0.00 58 1001.1
20171020125319 50 270 3.0 8.0 0.00 0.00 0.00 59 1001.0
20171020124814 50 270 6.0 9.0 0.00 0.00 0.00 60 1001.0
20171020124309 50 270 7.0 10.0 0.00 0.00 0.00 60 1000.8
20171020123804 50 270 6.0 13.0 0.00 0.00 0.00 61 1001.3
20171020123259 49 270 6.0 14.0 0.00 0.00 0.00 62 1001.1
20171020122753 50 270 9.0 14.0 0.00 0.00 0.00 62 1001.1
20171020122248 50 270 13.0 18.0 0.00 0.00 0.00 62 1000.9
20171020121743 49 270 12.0 16.0 0.00 0.00 0.00 62 1000.8
20171020121238 50 270 14.0 15.0 0.00 0.00 0.00 62 1000.8
20171020120224 50 270 7.0 16.0 0.00 0.00 0.00 62 1000.9
20171020115719 50 270 15.0 18.0 0.00 0.00 0.00 62 1000.7
20171020115215 50 270 12.0 18.0 0.00 0.00 0.00 62 1000.7
20171020114709 50 270 10.0 12.0 0.00 0.00 0.00 62 1000.7
20171020114204 50 270 13.0 18.0 0.00 0.00 0.00 62 1000.6
20171020113659 50 270 9.0 23.0 0.00 0.00 0.00 62 1000.6
20171020113153 50 270 5.0 12.0 0.00 0.00 0.00 62 1000.4
20171020112648 50 270 10.0 16.0 0.00 0.00 0.00 62 1000.3
20171020112143 50 270 11.0 17.0 0.00 0.00 0.00 62 1000.1
20171020111638 50 270 18.0 22.0 0.00 0.00 0.00 63 1000.3
20171020111133 50 270 15.0 19.0 0.00 0.00 0.00 64 1000.2
20171020110627 50 270 7.0 11.0 0.00 0.00 0.00 64 1000.4
20171020110122 50 270 8.0 16.0 0.00 0.00 0.00 64 1000.1
20171020105617 50 270 11.0 14.0 0.00 0.00 0.00 64 1000.1
20171020105112 50 270 8.0 14.0 0.00 0.00 0.00 64 999.8
20171020104607 50 270 11.0 17.0 0.00 0.00 0.00 64 999.8
20171020104102 50 270 12.0 17.0 0.00 0.00 0.00 64 1000.0
20171020103557 50 270 10.0 16.0 0.00 0.00 0.00 64 1000.2
20171020103051 50 225 13.0 17.0 0.00 0.00 0.00 63 1000.2
20171020102546 50 225 16.0 19.0 0.00 0.00 0.00 63 1000.1
20171020102041 50 225 15.0 17.0 0.00 0.00 0.00 63 1000.1
20171020101536 50 225 10.0 16.0 0.00 0.00 0.00 64 1000.3
20171020101030 50 225 10.0 15.0 0.00 0.00 0.00 64 1000.1
20171020100525 50 225 9.0 17.0 0.00 0.00 0.00 63 1000.0
20171020100020 50 180 10.0 16.0 0.00 0.00 0.00 64 1000.0
20171020095515 51 180 12.0 14.0 0.00 0.00 0.00 64 1000.2
20171020095010 51 225 17.0 17.0 0.00 0.00 0.00 63 1000.2
20171020094505 51 225 14.0 30.0 0.00 0.00 0.00 63 1000.1
20171020093959 51 225 19.0 25.0 0.00 0.00 0.00 63 1000.2
20171020093454 50 270 11.0 24.0 0.00 0.00 0.00 64 1000.0
20171020092949 50 270 12.0 30.0 0.00 0.00 0.00 64 1000.0
20171020092444 51 270 20.0 25.0 0.00 0.00 0.00 64 1000.2
20171020091939 51 270 16.0 21.0 0.00 0.00 0.00 63 1000.0
20171020091433 51 270 13.0 17.0 0.00 0.00 0.00 63 1000.2
20171020090928 51 270 13.0 24.0 0.00 0.00 0.00 63 1000.4
20171020090423 51 270 18.0 21.0 0.00 0.00 0.00 63 1000.3
20171020085918 51 270 11.0 16.0 0.00 0.00 0.00 62 1000.2
20171020085413 51 225 9.0 16.0 0.00 0.00 0.00 62 1000.1
20171020084907 51 270 12.0 21.0 0.00 0.00 0.00 62 999.9
20171020084402 51 270 15.0 20.0 0.00 0.00 0.00 62 999.8
20171020083857 51 270 11.0 20.0 0.00 0.00 0.00 62 1000.0
20171020083352 51 270 14.0 30.0 0.00 0.00 0.00 62 999.9
20171020082847 51 270 14.0 27.0 0.00 0.00 0.00 62 999.8
20171020082342 51 270 17.0 28.0 0.00 0.00 0.00 63 999.8
20171020081836 51 270 17.0 17.0 0.00 0.00 0.00 64 999.9
20171020081331 51 270 11.0 16.0 0.00 0.00 0.00 64 1000.1
20171020080826 51 270 8.0 16.0 0.00 0.00 0.00 64 1000.1
20171020080321 51 270 16.0 18.0 0.00 0.00 0.00 64 1000.3
20171020075816 51 225 12.0 19.0 0.00 0.00 0.00 64 1000.1
20171020075311 51 225 12.0 17.0 0.00 0.00 0.00 63 1000.2
20171020074805 51 225 17.0 21.0 0.00 0.00 0.00 64 1000.0
20171020074300 51 225 17.0 19.0 0.00 0.00 0.00 63 999.8
20171020073755 51 225 11.0 11.0 0.00 0.00 0.00 64 1000.4
20171020073250 51 225 13.0 13.0 0.00 0.00 0.00 62 1000.2
20171020072745 51 270 8.0 15.0 0.00 0.00 0.00 62 1000.2
20171020072239 51 270 9.0 17.0 0.00 0.00 0.00 62 1000.2
20171020071734 51 270 14.0 16.0 0.00 0.00 0.00 61 1000.0
20171020071229 51 270 15.0 15.0 0.00 0.00 0.00 60 1000.0
20171020070724 52 270 6.0 13.0 0.00 0.00 0.00 60 1000.1
20171020070219 52 270 13.0 14.0 0.00 0.00 0.00 59 1000.3
20171020065714 52 270 8.0 15.0 0.00 0.00 0.00 58 1000.2
20171020065208 52 270 13.0 17.0 0.00 0.00 0.00 57 1000.0
20171020064703 52 270 11.0 15.0 0.00 0.00 0.00 57 999.8
20171020064158 52 270 16.0 19.0 0.00 0.00 0.00 57 1000.0
20171020063653 53 270 16.0 21.0 0.00 0.00 0.00 56 1000.0
20171020063148 53 270 19.0 24.0 0.00 0.00 0.00 55 1000.0
20171020062642 53 270 13.0 15.0 0.00 0.00 0.00 55 1000.0
20171020062138 53 225 13.0 16.0 0.00 0.00 0.00 55 999.9
20171020061632 53 270 7.0 14.0 0.00 0.00 0.00 54 999.7
20171020061127 53 270 9.0 15.0 0.00 0.00 0.00 55 1000.0
20171020060622 53 270 8.0 16.0 0.00 0.00 0.00 58 999.9
20171020060116 53 225 10.0 10.0 0.00 0.00 0.00 60 999.9
20171020055611 52 270 5.0 11.0 0.00 0.00 0.00 64 1000.2
20171020055106 52 180 4.0 8.0 0.00 0.00 0.00 65 1000.0
20171020054601 52 135 3.0 16.0 0.00 0.00 0.00 65 999.8
20171020054056 52 135 7.0 16.0 0.00 0.00 0.00 66 999.8
20171020053550 52 135 11.0 17.0 0.00 0.00 0.00 67 999.9
20171020053046 52 135 14.0 16.0 0.00 0.00 0.00 66 999.9
20171020052540 52 135 15.0 16.0 0.00 0.00 0.00 67 999.8
20171020052035 52 135 7.0 13.0 0.00 0.00 0.00 68 1000.1
20171020051530 52 135 10.0 13.0 0.00 0.00 0.00 68 999.8
20171020051024 52 90 10.0 15.0 0.00 0.00 0.00 67 999.8
20171020050519 52 90 8.0 13.0 0.00 0.00 0.00 67 999.9
20171020050014 53 81 11.0 12.0 0.00 0.00 0.00 67 1000.0
20171020045001 53 90 12.0 20.0 0.00 0.00 0.00 70 999.8
20171020044456 53 85 11.0 16.0 0.00 0.00 0.00 72 998.7
20171020043951 52 85 14.0 14.0 0.00 0.00 0.00 75 998.7
20171020043935 52 76 12.0 12.0 0.00 0.00 0.00 75 998.7
20171020043919 52 90 12.0 12.0 0.00 0.00 0.00 74 998.7
20171020043902 52 85 11.0 18.0 0.00 0.00 0.00 76 998.5
20171020043357 52 85 9.0 11.0 0.00 0.00 0.00 76 998.9
20171020042852 52 72 0.0 0.0 0.00 0.00 0.00 76 998.7
20171020042347 52 45 0.0 0.0 0.00 0.00 0.00 76 998.4
20171020041832 53 45 0.0 0.0 0.00 0.00 0.00 77 998.6
20171020041327 53 45 2.0 3.0 0.00 0.00 0.00 75 998.7
20171020040821 52 40 7.0 9.0 0.00 0.00 0.00 77 998.6
20171020040316 52 45 7.0 10.0 0.00 0.00 0.00 77 998.4
20171020035811 52 45 4.0 4.0 0.00 0.00 0.00 75 998.3
20171020035306 52 310 5.0 8.0 0.00 0.00 0.00 77 998.4
20171020034800 52 306 8.0 8.0 0.00 0.00 0.00 76 998.5
20171020034255 52 310 4.0 6.0 0.00 0.00 0.00 77 998.9
20171020033750 52 310 3.0 4.0 0.00 0.00 0.00 78 998.4
20171020033245 52 315 1.0 2.0 0.00 0.00 0.00 78 998.9
20171020032740 52 315 0.0 0.0 0.00 0.00 0.00 76 998.3
20171020032235 53 310 0.0 0.0 0.00 0.00 0.00 76 998.2
20171020031719 53 306 2.0 2.0 0.00 0.00 0.00 76 998.1
20171020031214 53 315 1.0 2.0 0.00 0.00 0.00 76 998.4
20171020030709 53 315 2.0 4.0 0.00 0.00 0.00 78 997.9
20171020030204 54 301 3.0 3.0 0.00 0.00 0.00 77 998.3
20171020025659 54 306 0.0 1.0 0.00 0.00 0.00 78 998.3
20171020025153 54 306 0.0 3.0 0.00 0.00 0.00 76 998.1
20171020024648 54 315 3.0 3.0 0.00 0.00 0.00 77 998.3
20171020024143 54 315 1.0 3.0 0.00 0.00 0.00 75 998.1
20171020023638 54 315 2.0 3.0 0.00 0.00 0.00 74 998.0
20171020023133 54 310 1.0 2.0 0.00 0.00 0.00 74 998.0
20171020022627 54 292 2.0 4.0 0.00 0.00 0.00 77 998.1
20171020022122 54 315 3.0 3.0 0.00 0.00 0.00 73 998.6
20171020021617 55 315 1.0 3.0 0.00 0.00 0.00 74 999.2
20171020021112 55 315 1.0 3.0 0.00 0.00 0.00 72 999.2
20171020020607 56 315 2.0 5.0 0.00 0.00 0.00 71 999.2
20171020020102 56 315 4.0 7.0 0.00 0.00 0.00 70 999.3
20171020015556 56 315 4.0 9.0 0.00 0.00 0.00 70 999.3
20171020015051 56 315 5.0 7.0 0.00 0.00 0.00 70 999.0
20171020014546 56 315 5.0 5.0 0.00 0.00 0.00 69 999.1
20171020014041 56 315 4.0 6.0 0.00 0.00 0.00 68 999.1
20171020013536 57 315 4.0 4.0 0.00 0.00 0.00 68 998.8
20171020013030 57 315 2.0 4.0 0.00 0.00 0.00 67 998.8
20171020012525 57 315 2.0 3.0 0.00 0.00 0.00 66 998.6
20171020012020 58 315 3.0 4.0 0.00 0.00 0.00 65 998.7
20171020011515 58 315 3.0 5.0 0.00 0.00 0.00 65 998.8
20171020011010 58 315 4.0 6.0 0.00 0.00 0.00 65 998.9
20171020010504 58 315 3.0 7.0 0.00 0.00 0.00 65 998.9
20171020005959 58 315 5.0 6.0 0.00 0.00 0.00 65 999.1
20171020005454 58 315 3.0 5.0 0.00 0.00 0.00 64 998.9
20171020004949 58 315 3.0 5.0 0.00 0.00 0.00 65 998.8
20171020004444 59 315 3.0 5.0 0.00 0.00 0.00 63 999.0
20171020003939 59 315 3.0 8.0 0.00 0.00 0.00 63 999.0
20171020003433 59 315 4.0 7.0 0.00 0.00 0.00 64 998.8
20171020002929 59 315 4.0 6.0 0.00 0.00 0.00 63 998.9
20171020002423 59 315 4.0 11.0 0.00 0.00 0.00 62 998.9
20171020001918 60 315 3.0 8.0 0.00 0.00 0.00 61 998.9
20171020001413 60 337 4.0 9.0 0.00 0.00 0.00 59 998.8
20171020000907 60 337 8.0 13.0 0.00 0.00 0.00 58 998.9
20171020000402 60 337 9.0 16.0 0.00 0.00 0.00 58 998.9
20171019235857 60 279 11.0 17.0 0.00 0.00 0.00 59 998.6
20171019235352 60 315 6.0 9.0 0.00 0.00 0.00 58 998.7
20171019234847 61 315 7.0 11.0 0.00 0.00 0.00 56 998.6
20171019234342 62 315 12.0 13.0 0.00 0.00 0.00 54 998.6
20171019233837 62 315 6.0 15.0 0.00 0.00 0.00 51 998.4
20171019233331 63 315 10.0 15.0 0.00 0.00 0.00 48 998.3
20171019232826 64 315 9.0 16.0 0.00 0.00 0.00 46 998.0
20171019232321 65 315 11.0 13.0 0.00 0.00 0.00 42 998.5
20171019231816 65 315 11.0 14.0 0.00 0.00 0.00 40 998.5
20171019231311 65 297 7.0 19.0 0.00 0.00 0.00 39 998.4
20171019230805 65 315 11.0 17.0 0.00 0.00 0.00 39 998.6
20171019230300 65 234 10.0 14.0 0.00 0.00 0.00 40 998.5
20171019225755 66 315 14.0 17.0 0.00 0.00 0.00 39 998.6
20171019225250 66 315 9.0 15.0 0.00 0.00 0.00 37 998.5
20171019224745 66 315 16.0 19.0 0.00 0.00 0.00 37 998.1
20171019224239 66 270 11.0 18.0 0.00 0.00 0.00 35 998.5
20171019223734 66 315 7.0 16.0 0.00 0.00 0.00 37 998.6
20171019223229 66 315 5.0 15.0 0.00 0.00 0.00 38 998.4
20171019222724 66 315 9.0 16.0 0.00 0.00 0.00 37 998.3
20171019222219 66 315 7.0 15.0 0.00 0.00 0.00 37 998.4
20171019221714 66 315 5.0 16.0 0.00 0.00 0.00 35 998.5
20171019221209 66 315 8.0 15.0 0.00 0.00 0.00 35 998.5
20171019220703 66 315 10.0 13.0 0.00 0.00 0.00 35 998.6
20171019220158 67 315 6.0 11.0 0.00 0.00 0.00 35 998.7
20171019215653 67 315 6.0 10.0 0.00 0.00 0.00 34 998.9
20171019215148 67 315 13.0 16.0 0.00 0.00 0.00 33 999.0
20171019214642 67 315 5.0 16.0 0.00 0.00 0.00 33 998.9
20171019214137 67 315 14.0 14.0 0.00 0.00 0.00 33 999.0
20171019213632 66 315 7.0 14.0 0.00 0.00 0.00 35 999.2
20171019213127 67 315 9.0 15.0 0.00 0.00 0.00 35 999.3
20171019212622 67 315 5.0 15.0 0.00 0.00 0.00 34 999.6
20171019212117 67 315 6.0 10.0 0.00 0.00 0.00 34 999.6
20171019211611 67 315 4.0 18.0 0.00 0.00 0.00 33 999.7
20171019211106 67 315 5.0 12.0 0.00 0.00 0.00 33 1000.0
20171019210601 68 315 18.0 24.0 0.00 0.00 0.00 31 1000.1
20171019210056 68 315 4.0 12.0 0.00 0.00 0.00 32 1000.1
20171019205551 68 315 10.0 10.0 0.00 0.00 0.00 33 1000.2
20171019205045 68 315 5.0 16.0 0.00 0.00 0.00 32 1000.0
20171019204540 68 270 9.0 13.0 0.00 0.00 0.00 32 1000.1
20171019204035 68 270 2.0 13.0 0.00 0.00 0.00 33 1000.3
20171019203530 68 315 8.0 13.0 0.00 0.00 0.00 33 1000.4
20171019203025 67 270 8.0 12.0 0.00 0.00 0.00 33 1000.5
20171019202519 67 270 5.0 9.0 0.00 0.00 0.00 35 1000.7
20171019202014 66 270 6.0 9.0 0.00 0.00 0.00 36 1000.7
20171019201509 66 270 4.0 6.0 0.00 0.00 0.00 36 1000.7
20171019201004 66 270 7.0 10.0 0.00 0.00 0.00 36 1000.7
20171019200459 65 270 7.0 8.0 0.00 0.00 0.00 37 1000.8
20171019195954 65 270 5.0 9.0 0.00 0.00 0.00 39 1000.9
20171019195448 65 270 7.0 8.0 0.00 0.00 0.00 39 1000.9